sensor_id;sensor_type;location;lat;lon;timestamp;P1;durP1;ratioP1;P2;durP2;ratioP2
8964;SDS011;4517;49.020;12.066;2022-12-18T00:01:17;87.10;;;28.70;;
8964;SDS011;4517;49.020;12.066;2022-12-18T00:03:45;77.13;;;28.70;;
8964;SDS011;4517;49.020;12.066;2022-12-18T00:06:11;89.03;;;28.30;;
8964;SDS011;4517;49.020;12.066;2022-12-18T00:08:38;80.23;;;28.30;;
8964;SDS011;4517;49.020;12.066;2022-12-18T00:11:08;98.57;;;29.17;;
8964;SDS011;4517;49.020;12.066;2022-12-18T00:13:36;88.30;;;30.27;;
8964;SDS011;4517;49.020;12.066;2022-12-18T00:16:03;93.47;;;31.13;;
8964;SDS011;4517;49.020;12.066;2022-12-18T00:18:29;93.90;;;30.70;;
8964;SDS011;4517;49.020;12.066;2022-12-18T00:20:58;72.53;;;28.13;;
8964;SDS011;4517;49.020;12.066;2022-12-18T00:23:28;83.10;;;29.67;;
8964;SDS011;4517;49.020;12.066;2022-12-18T00:25:55;81.23;;;29.80;;
8964;SDS011;4517;49.020;12.066;2022-12-18T00:28:24;74.63;;;28.57;;
8964;SDS011;4517;49.020;12.066;2022-12-18T00:30:50;82.47;;;26.83;;
8964;SDS011;4517;49.020;12.066;2022-12-18T00:33:16;80.57;;;28.60;;
8964;SDS011;4517;49.020;12.066;2022-12-18T00:35:42;68.73;;;26.73;;
8964;SDS011;4517;49.020;12.066;2022-12-18T00:38:08;69.70;;;25.47;;
8964;SDS011;4517;49.020;12.066;2022-12-18T00:40:33;79.97;;;28.30;;
8964;SDS011;4517;49.020;12.066;2022-12-18T00:42:59;73.70;;;25.53;;
8964;SDS011;4517;49.020;12.066;2022-12-18T00:45:25;66.87;;;26.67;;
8964;SDS011;4517;49.020;12.066;2022-12-18T00:47:53;79.20;;;28.40;;
8964;SDS011;4517;49.020;12.066;2022-12-18T00:50:19;81.20;;;26.43;;
8964;SDS011;4517;49.020;12.066;2022-12-18T00:52:45;90.87;;;28.97;;
8964;SDS011;4517;49.020;12.066;2022-12-18T00:55:11;81.87;;;28.67;;
8964;SDS011;4517;49.020;12.066;2022-12-18T00:57:37;68.50;;;27.70;;
8964;SDS011;4517;49.020;12.066;2022-12-18T01:00:03;71.00;;;24.70;;
8964;SDS011;4517;49.020;12.066;2022-12-18T01:02:30;65.27;;;27.70;;
8964;SDS011;4517;49.020;12.066;2022-12-18T01:04:56;76.10;;;26.93;;
8964;SDS011;4517;49.020;12.066;2022-12-18T01:07:21;73.60;;;26.57;;
8964;SDS011;4517;49.020;12.066;2022-12-18T01:09:47;84.90;;;28.80;;
8964;SDS011;4517;49.020;12.066;2022-12-18T01:12:12;85.10;;;29.43;;
8964;SDS011;4517;49.020;12.066;2022-12-18T01:14:38;68.23;;;27.70;;
8964;SDS011;4517;49.020;12.066;2022-12-18T01:17:03;79.00;;;26.63;;
8964;SDS011;4517;49.020;12.066;2022-12-18T01:19:29;84.87;;;27.27;;
8964;SDS011;4517;49.020;12.066;2022-12-18T01:21:55;84.27;;;28.23;;
8964;SDS011;4517;49.020;12.066;2022-12-18T01:24:21;70.10;;;25.67;;
8964;SDS011;4517;49.020;12.066;2022-12-18T01:26:46;85.50;;;27.53;;
8964;SDS011;4517;49.020;12.066;2022-12-18T01:29:12;70.27;;;25.63;;
8964;SDS011;4517;49.020;12.066;2022-12-18T01:31:37;76.27;;;25.43;;
8964;SDS011;4517;49.020;12.066;2022-12-18T01:34:04;74.33;;;25.87;;
8964;SDS011;4517;49.020;12.066;2022-12-18T01:36:34;74.67;;;26.83;;
8964;SDS011;4517;49.020;12.066;2022-12-18T01:39:02;63.10;;;25.20;;
8964;SDS011;4517;49.020;12.066;2022-12-18T01:41:36;74.67;;;25.93;;
8964;SDS011;4517;49.020;12.066;2022-12-18T01:49:56;79.67;;;26.57;;
8964;SDS011;4517;49.020;12.066;2022-12-18T01:52:23;67.53;;;25.73;;
8964;SDS011;4517;49.020;12.066;2022-12-18T01:54:53;72.67;;;27.13;;
8964;SDS011;4517;49.020;12.066;2022-12-18T01:57:19;66.27;;;26.00;;
8964;SDS011;4517;49.020;12.066;2022-12-18T01:59:45;65.10;;;25.53;;
8964;SDS011;4517;49.020;12.066;2022-12-18T02:02:16;74.80;;;28.37;;
8964;SDS011;4517;49.020;12.066;2022-12-18T02:04:42;88.33;;;28.13;;
8964;SDS011;4517;49.020;12.066;2022-12-18T02:09:56;73.80;;;24.40;;
8964;SDS011;4517;49.020;12.066;2022-12-18T02:12:29;70.23;;;27.40;;
8964;SDS011;4517;49.020;12.066;2022-12-18T02:15:09;73.73;;;25.23;;
8964;SDS011;4517;49.020;12.066;2022-12-18T02:17:50;64.50;;;26.43;;
8964;SDS011;4517;49.020;12.066;2022-12-18T02:20:24;90.00;;;27.27;;
8964;SDS011;4517;49.020;12.066;2022-12-18T02:26:06;88.07;;;27.77;;
8964;SDS011;4517;49.020;12.066;2022-12-18T02:28:44;80.67;;;28.30;;
8964;SDS011;4517;49.020;12.066;2022-12-18T02:31:14;79.90;;;26.80;;
8964;SDS011;4517;49.020;12.066;2022-12-18T02:33:44;80.00;;;27.23;;
8964;SDS011;4517;49.020;12.066;2022-12-18T02:36:11;76.53;;;27.50;;
8964;SDS011;4517;49.020;12.066;2022-12-18T02:38:38;80.90;;;26.93;;
8964;SDS011;4517;49.020;12.066;2022-12-18T02:41:05;88.57;;;26.63;;
8964;SDS011;4517;49.020;12.066;2022-12-18T02:43:32;69.17;;;25.33;;
8964;SDS011;4517;49.020;12.066;2022-12-18T02:45:58;86.37;;;27.43;;
8964;SDS011;4517;49.020;12.066;2022-12-18T02:48:27;83.30;;;26.93;;
8964;SDS011;4517;49.020;12.066;2022-12-18T02:50:58;68.03;;;24.30;;
8964;SDS011;4517;49.020;12.066;2022-12-18T02:53:51;68.90;;;25.73;;
8964;SDS011;4517;49.020;12.066;2022-12-18T02:56:28;59.93;;;23.50;;
8964;SDS011;4517;49.020;12.066;2022-12-18T02:59:08;64.77;;;25.07;;
8964;SDS011;4517;49.020;12.066;2022-12-18T03:02:01;52.70;;;22.47;;
8964;SDS011;4517;49.020;12.066;2022-12-18T03:04:53;58.67;;;23.40;;
8964;SDS011;4517;49.020;12.066;2022-12-18T03:07:34;53.40;;;22.40;;
8964;SDS011;4517;49.020;12.066;2022-12-18T03:10:06;62.80;;;21.07;;
8964;SDS011;4517;49.020;12.066;2022-12-18T03:12:35;58.03;;;21.57;;
8964;SDS011;4517;49.020;12.066;2022-12-18T03:15:18;59.20;;;23.67;;
8964;SDS011;4517;49.020;12.066;2022-12-18T03:17:52;56.10;;;21.90;;
8964;SDS011;4517;49.020;12.066;2022-12-18T03:20:22;80.17;;;26.17;;
8964;SDS011;4517;49.020;12.066;2022-12-18T03:22:51;59.63;;;21.83;;
8964;SDS011;4517;49.020;12.066;2022-12-18T03:25:22;51.67;;;23.23;;
8964;SDS011;4517;49.020;12.066;2022-12-18T03:27:51;52.67;;;22.87;;
8964;SDS011;4517;49.020;12.066;2022-12-18T03:30:21;63.90;;;24.10;;
8964;SDS011;4517;49.020;12.066;2022-12-18T03:32:52;54.47;;;22.60;;
8964;SDS011;4517;49.020;12.066;2022-12-18T03:35:31;60.10;;;22.67;;
8964;SDS011;4517;49.020;12.066;2022-12-18T03:38:00;53.70;;;20.33;;
8964;SDS011;4517;49.020;12.066;2022-12-18T03:40:35;58.93;;;23.00;;
8964;SDS011;4517;49.020;12.066;2022-12-18T03:43:30;60.83;;;23.37;;
8964;SDS011;4517;49.020;12.066;2022-12-18T03:49:13;59.33;;;21.57;;
8964;SDS011;4517;49.020;12.066;2022-12-18T03:51:48;46.80;;;19.90;;
8964;SDS011;4517;49.020;12.066;2022-12-18T03:54:19;61.33;;;23.87;;
8964;SDS011;4517;49.020;12.066;2022-12-18T03:56:47;62.93;;;24.60;;
8964;SDS011;4517;49.020;12.066;2022-12-18T03:59:17;61.67;;;21.20;;
8964;SDS011;4517;49.020;12.066;2022-12-18T04:01:48;52.60;;;23.40;;
8964;SDS011;4517;49.020;12.066;2022-12-18T04:04:17;59.83;;;21.83;;
8964;SDS011;4517;49.020;12.066;2022-12-18T04:06:43;52.63;;;24.40;;
8964;SDS011;4517;49.020;12.066;2022-12-18T04:09:11;57.77;;;23.43;;
8964;SDS011;4517;49.020;12.066;2022-12-18T04:11:38;60.50;;;22.77;;
8964;SDS011;4517;49.020;12.066;2022-12-18T04:14:06;57.00;;;22.07;;
8964;SDS011;4517;49.020;12.066;2022-12-18T04:16:31;63.30;;;22.57;;
8964;SDS011;4517;49.020;12.066;2022-12-18T04:18:57;57.57;;;22.63;;
8964;SDS011;4517;49.020;12.066;2022-12-18T04:21:22;68.33;;;22.10;;
8964;SDS011;4517;49.020;12.066;2022-12-18T04:23:48;57.47;;;21.07;;
8964;SDS011;4517;49.020;12.066;2022-12-18T04:26:13;65.53;;;23.10;;
8964;SDS011;4517;49.020;12.066;2022-12-18T04:28:39;57.23;;;22.30;;
8964;SDS011;4517;49.020;12.066;2022-12-18T04:31:04;54.33;;;23.67;;
8964;SDS011;4517;49.020;12.066;2022-12-18T04:33:30;64.23;;;24.30;;
8964;SDS011;4517;49.020;12.066;2022-12-18T04:35:55;61.20;;;23.00;;
8964;SDS011;4517;49.020;12.066;2022-12-18T04:38:21;58.03;;;23.60;;
8964;SDS011;4517;49.020;12.066;2022-12-18T04:40:46;55.57;;;22.53;;
8964;SDS011;4517;49.020;12.066;2022-12-18T04:43:12;56.07;;;23.93;;
8964;SDS011;4517;49.020;12.066;2022-12-18T04:45:37;62.60;;;21.73;;
8964;SDS011;4517;49.020;12.066;2022-12-18T04:48:03;48.97;;;21.13;;
8964;SDS011;4517;49.020;12.066;2022-12-18T04:50:29;49.73;;;21.40;;
8964;SDS011;4517;49.020;12.066;2022-12-18T04:52:55;59.27;;;21.90;;
8964;SDS011;4517;49.020;12.066;2022-12-18T04:55:22;53.83;;;21.73;;
8964;SDS011;4517;49.020;12.066;2022-12-18T04:57:47;52.90;;;21.73;;
8964;SDS011;4517;49.020;12.066;2022-12-18T05:00:13;57.13;;;21.70;;
8964;SDS011;4517;49.020;12.066;2022-12-18T05:02:39;54.00;;;19.67;;
8964;SDS011;4517;49.020;12.066;2022-12-18T05:05:04;58.67;;;23.70;;
8964;SDS011;4517;49.020;12.066;2022-12-18T05:07:30;55.80;;;19.80;;
8964;SDS011;4517;49.020;12.066;2022-12-18T05:09:56;53.93;;;21.00;;
8964;SDS011;4517;49.020;12.066;2022-12-18T05:12:21;47.67;;;18.60;;
8964;SDS011;4517;49.020;12.066;2022-12-18T05:14:47;48.03;;;21.40;;
8964;SDS011;4517;49.020;12.066;2022-12-18T05:17:12;49.87;;;18.70;;
8964;SDS011;4517;49.020;12.066;2022-12-18T05:19:38;50.03;;;19.27;;
8964;SDS011;4517;49.020;12.066;2022-12-18T05:22:03;48.53;;;18.90;;
8964;SDS011;4517;49.020;12.066;2022-12-18T05:24:32;44.63;;;18.83;;
8964;SDS011;4517;49.020;12.066;2022-12-18T05:26:57;40.47;;;17.97;;
8964;SDS011;4517;49.020;12.066;2022-12-18T05:29:23;45.93;;;18.83;;
8964;SDS011;4517;49.020;12.066;2022-12-18T05:31:48;50.20;;;19.30;;
8964;SDS011;4517;49.020;12.066;2022-12-18T05:34:14;45.57;;;19.67;;
8964;SDS011;4517;49.020;12.066;2022-12-18T05:36:40;37.87;;;17.93;;
8964;SDS011;4517;49.020;12.066;2022-12-18T05:39:05;59.90;;;20.63;;
8964;SDS011;4517;49.020;12.066;2022-12-18T05:41:31;48.83;;;19.40;;
8964;SDS011;4517;49.020;12.066;2022-12-18T05:43:57;54.73;;;20.33;;
8964;SDS011;4517;49.020;12.066;2022-12-18T05:46:23;56.63;;;20.97;;
8964;SDS011;4517;49.020;12.066;2022-12-18T05:48:49;51.90;;;21.27;;
8964;SDS011;4517;49.020;12.066;2022-12-18T05:51:16;59.30;;;21.60;;
8964;SDS011;4517;49.020;12.066;2022-12-18T05:53:43;51.50;;;20.50;;
8964;SDS011;4517;49.020;12.066;2022-12-18T05:56:10;69.80;;;21.77;;
8964;SDS011;4517;49.020;12.066;2022-12-18T05:58:46;44.23;;;17.70;;
8964;SDS011;4517;49.020;12.066;2022-12-18T06:01:16;53.83;;;21.60;;
8964;SDS011;4517;49.020;12.066;2022-12-18T06:03:44;49.27;;;20.67;;
8964;SDS011;4517;49.020;12.066;2022-12-18T06:06:13;56.57;;;20.50;;
8964;SDS011;4517;49.020;12.066;2022-12-18T06:08:40;49.43;;;20.13;;
8964;SDS011;4517;49.020;12.066;2022-12-18T06:11:06;53.90;;;19.77;;
8964;SDS011;4517;49.020;12.066;2022-12-18T06:13:31;63.90;;;22.20;;
8964;SDS011;4517;49.020;12.066;2022-12-18T06:15:57;52.40;;;20.33;;
8964;SDS011;4517;49.020;12.066;2022-12-18T06:18:22;59.73;;;21.67;;
8964;SDS011;4517;49.020;12.066;2022-12-18T06:20:55;50.43;;;21.40;;
8964;SDS011;4517;49.020;12.066;2022-12-18T06:23:21;63.97;;;19.97;;
8964;SDS011;4517;49.020;12.066;2022-12-18T06:25:47;55.80;;;21.97;;
8964;SDS011;4517;49.020;12.066;2022-12-18T06:28:12;50.00;;;19.97;;
8964;SDS011;4517;49.020;12.066;2022-12-18T06:30:38;53.20;;;22.40;;
8964;SDS011;4517;49.020;12.066;2022-12-18T06:33:04;52.80;;;20.80;;
8964;SDS011;4517;49.020;12.066;2022-12-18T06:35:29;55.13;;;19.87;;
8964;SDS011;4517;49.020;12.066;2022-12-18T06:37:56;59.80;;;19.27;;
8964;SDS011;4517;49.020;12.066;2022-12-18T06:40:22;49.27;;;20.00;;
8964;SDS011;4517;49.020;12.066;2022-12-18T06:42:47;58.03;;;21.50;;
8964;SDS011;4517;49.020;12.066;2022-12-18T06:45:13;60.50;;;19.10;;
8964;SDS011;4517;49.020;12.066;2022-12-18T06:47:38;60.17;;;20.00;;
8964;SDS011;4517;49.020;12.066;2022-12-18T06:50:04;49.30;;;19.47;;
8964;SDS011;4517;49.020;12.066;2022-12-18T06:52:31;60.63;;;21.30;;
8964;SDS011;4517;49.020;12.066;2022-12-18T06:54:57;58.40;;;20.57;;
8964;SDS011;4517;49.020;12.066;2022-12-18T06:57:23;67.27;;;22.07;;
8964;SDS011;4517;49.020;12.066;2022-12-18T06:59:48;43.23;;;17.97;;
8964;SDS011;4517;49.020;12.066;2022-12-18T07:02:14;59.50;;;19.40;;
8964;SDS011;4517;49.020;12.066;2022-12-18T07:04:39;59.37;;;20.50;;
8964;SDS011;4517;49.020;12.066;2022-12-18T07:07:05;57.40;;;22.83;;
8964;SDS011;4517;49.020;12.066;2022-12-18T07:09:31;65.23;;;22.53;;
8964;SDS011;4517;49.020;12.066;2022-12-18T07:11:56;55.00;;;22.03;;
8964;SDS011;4517;49.020;12.066;2022-12-18T07:14:22;53.30;;;21.90;;
8964;SDS011;4517;49.020;12.066;2022-12-18T07:16:48;64.80;;;21.23;;
8964;SDS011;4517;49.020;12.066;2022-12-18T07:19:13;51.57;;;19.50;;
8964;SDS011;4517;49.020;12.066;2022-12-18T07:21:39;52.07;;;20.00;;
8964;SDS011;4517;49.020;12.066;2022-12-18T07:24:05;59.43;;;21.60;;
8964;SDS011;4517;49.020;12.066;2022-12-18T07:26:30;53.53;;;20.90;;
8964;SDS011;4517;49.020;12.066;2022-12-18T07:28:56;61.07;;;21.27;;
8964;SDS011;4517;49.020;12.066;2022-12-18T07:31:23;53.47;;;20.60;;
8964;SDS011;4517;49.020;12.066;2022-12-18T07:33:49;55.60;;;21.27;;
8964;SDS011;4517;49.020;12.066;2022-12-18T07:36:15;68.07;;;22.87;;
8964;SDS011;4517;49.020;12.066;2022-12-18T07:38:41;60.87;;;20.87;;
8964;SDS011;4517;49.020;12.066;2022-12-18T07:41:08;51.73;;;20.97;;
8964;SDS011;4517;49.020;12.066;2022-12-18T07:43:35;59.77;;;22.13;;
8964;SDS011;4517;49.020;12.066;2022-12-18T07:46:01;64.23;;;23.53;;
8964;SDS011;4517;49.020;12.066;2022-12-18T07:48:28;57.37;;;20.00;;
8964;SDS011;4517;49.020;12.066;2022-12-18T07:50:57;57.10;;;23.10;;
8964;SDS011;4517;49.020;12.066;2022-12-18T07:53:23;73.07;;;24.40;;
8964;SDS011;4517;49.020;12.066;2022-12-18T07:55:54;71.87;;;22.00;;
8964;SDS011;4517;49.020;12.066;2022-12-18T07:58:23;64.50;;;22.23;;
8964;SDS011;4517;49.020;12.066;2022-12-18T08:00:49;54.87;;;20.37;;
8964;SDS011;4517;49.020;12.066;2022-12-18T08:03:15;75.13;;;22.33;;
8964;SDS011;4517;49.020;12.066;2022-12-18T08:05:40;64.47;;;21.60;;
8964;SDS011;4517;49.020;12.066;2022-12-18T08:08:06;54.83;;;21.07;;
8964;SDS011;4517;49.020;12.066;2022-12-18T08:10:31;48.33;;;19.63;;
8964;SDS011;4517;49.020;12.066;2022-12-18T08:12:57;54.73;;;21.63;;
8964;SDS011;4517;49.020;12.066;2022-12-18T08:15:22;73.40;;;24.13;;
8964;SDS011;4517;49.020;12.066;2022-12-18T08:17:48;60.60;;;23.30;;
8964;SDS011;4517;49.020;12.066;2022-12-18T08:20:13;57.03;;;20.70;;
8964;SDS011;4517;49.020;12.066;2022-12-18T08:22:40;59.50;;;21.20;;
8964;SDS011;4517;49.020;12.066;2022-12-18T08:25:06;54.73;;;19.97;;
8964;SDS011;4517;49.020;12.066;2022-12-18T08:27:33;57.50;;;20.80;;
8964;SDS011;4517;49.020;12.066;2022-12-18T08:29:58;63.47;;;24.40;;
8964;SDS011;4517;49.020;12.066;2022-12-18T08:32:24;72.70;;;23.70;;
8964;SDS011;4517;49.020;12.066;2022-12-18T08:34:51;53.47;;;21.30;;
8964;SDS011;4517;49.020;12.066;2022-12-18T08:37:17;51.80;;;19.27;;
8964;SDS011;4517;49.020;12.066;2022-12-18T08:39:42;49.10;;;19.50;;
8964;SDS011;4517;49.020;12.066;2022-12-18T08:42:08;52.23;;;18.97;;
8964;SDS011;4517;49.020;12.066;2022-12-18T08:44:53;43.27;;;18.60;;
8964;SDS011;4517;49.020;12.066;2022-12-18T08:47:18;52.33;;;19.33;;
8964;SDS011;4517;49.020;12.066;2022-12-18T08:49:44;50.83;;;21.03;;
8964;SDS011;4517;49.020;12.066;2022-12-18T08:52:09;45.70;;;19.00;;
8964;SDS011;4517;49.020;12.066;2022-12-18T08:54:36;44.97;;;19.73;;
8964;SDS011;4517;49.020;12.066;2022-12-18T08:57:01;41.30;;;19.13;;
8964;SDS011;4517;49.020;12.066;2022-12-18T08:59:27;44.00;;;18.60;;
8964;SDS011;4517;49.020;12.066;2022-12-18T09:01:53;41.47;;;18.43;;
8964;SDS011;4517;49.020;12.066;2022-12-18T09:04:20;46.43;;;17.53;;
8964;SDS011;4517;49.020;12.066;2022-12-18T09:06:45;47.80;;;19.90;;
8964;SDS011;4517;49.020;12.066;2022-12-18T09:09:11;50.60;;;20.20;;
8964;SDS011;4517;49.020;12.066;2022-12-18T09:11:37;36.97;;;19.17;;
8964;SDS011;4517;49.020;12.066;2022-12-18T09:14:03;41.97;;;20.40;;
8964;SDS011;4517;49.020;12.066;2022-12-18T09:16:28;44.03;;;20.37;;
8964;SDS011;4517;49.020;12.066;2022-12-18T09:18:55;38.50;;;19.80;;
8964;SDS011;4517;49.020;12.066;2022-12-18T09:21:24;39.23;;;18.27;;
8964;SDS011;4517;49.020;12.066;2022-12-18T09:23:52;40.50;;;18.57;;
8964;SDS011;4517;49.020;12.066;2022-12-18T09:26:19;47.47;;;20.40;;
8964;SDS011;4517;49.020;12.066;2022-12-18T09:28:45;46.03;;;19.50;;
8964;SDS011;4517;49.020;12.066;2022-12-18T09:31:11;48.47;;;18.80;;
8964;SDS011;4517;49.020;12.066;2022-12-18T09:33:37;47.83;;;18.33;;
8964;SDS011;4517;49.020;12.066;2022-12-18T09:36:04;50.50;;;19.47;;
8964;SDS011;4517;49.020;12.066;2022-12-18T09:38:32;47.63;;;18.50;;
8964;SDS011;4517;49.020;12.066;2022-12-18T09:40:59;43.57;;;19.37;;
8964;SDS011;4517;49.020;12.066;2022-12-18T09:43:33;42.43;;;19.17;;
8964;SDS011;4517;49.020;12.066;2022-12-18T09:46:06;42.07;;;18.20;;
8964;SDS011;4517;49.020;12.066;2022-12-18T09:48:35;42.73;;;18.47;;
8964;SDS011;4517;49.020;12.066;2022-12-18T09:51:15;48.47;;;20.17;;
8964;SDS011;4517;49.020;12.066;2022-12-18T09:53:53;44.63;;;19.97;;
8964;SDS011;4517;49.020;12.066;2022-12-18T09:56:28;49.30;;;19.37;;
8964;SDS011;4517;49.020;12.066;2022-12-18T09:59:00;47.50;;;20.50;;
8964;SDS011;4517;49.020;12.066;2022-12-18T10:01:28;49.90;;;20.70;;
8964;SDS011;4517;49.020;12.066;2022-12-18T10:03:55;57.70;;;22.93;;
8964;SDS011;4517;49.020;12.066;2022-12-18T10:06:42;52.03;;;21.53;;
8964;SDS011;4517;49.020;12.066;2022-12-18T10:12:03;54.90;;;20.90;;
8964;SDS011;4517;49.020;12.066;2022-12-18T10:14:47;55.60;;;19.37;;
8964;SDS011;4517;49.020;12.066;2022-12-18T10:17:40;59.80;;;22.47;;
8964;SDS011;4517;49.020;12.066;2022-12-18T10:20:34;42.70;;;17.77;;
8964;SDS011;4517;49.020;12.066;2022-12-18T10:26:13;48.50;;;19.63;;
8964;SDS011;4517;49.020;12.066;2022-12-18T10:28:39;48.63;;;20.33;;
8964;SDS011;4517;49.020;12.066;2022-12-18T10:31:06;45.00;;;20.00;;
8964;SDS011;4517;49.020;12.066;2022-12-18T10:33:37;57.40;;;18.60;;
8964;SDS011;4517;49.020;12.066;2022-12-18T10:36:03;43.97;;;20.07;;
8964;SDS011;4517;49.020;12.066;2022-12-18T10:38:30;50.13;;;20.30;;
8964;SDS011;4517;49.020;12.066;2022-12-18T10:40:58;56.10;;;18.70;;
8964;SDS011;4517;49.020;12.066;2022-12-18T10:43:39;39.87;;;19.57;;
8964;SDS011;4517;49.020;12.066;2022-12-18T10:51:26;44.60;;;19.33;;
8964;SDS011;4517;49.020;12.066;2022-12-18T10:56:31;37.50;;;18.23;;
8964;SDS011;4517;49.020;12.066;2022-12-18T10:59:01;39.60;;;17.57;;
8964;SDS011;4517;49.020;12.066;2022-12-18T11:01:32;38.27;;;16.93;;
8964;SDS011;4517;49.020;12.066;2022-12-18T11:04:21;48.10;;;18.80;;
8964;SDS011;4517;49.020;12.066;2022-12-18T11:09:28;40.87;;;18.83;;
8964;SDS011;4517;49.020;12.066;2022-12-18T11:11:59;50.30;;;21.50;;
8964;SDS011;4517;49.020;12.066;2022-12-18T11:14:34;56.10;;;19.70;;
8964;SDS011;4517;49.020;12.066;2022-12-18T11:17:21;49.67;;;20.90;;
8964;SDS011;4517;49.020;12.066;2022-12-18T11:19:56;46.80;;;19.87;;
8964;SDS011;4517;49.020;12.066;2022-12-18T11:22:27;40.23;;;19.80;;
8964;SDS011;4517;49.020;12.066;2022-12-18T11:24:57;43.43;;;19.90;;
8964;SDS011;4517;49.020;12.066;2022-12-18T11:27:29;42.60;;;20.13;;
8964;SDS011;4517;49.020;12.066;2022-12-18T11:30:07;49.63;;;21.07;;
8964;SDS011;4517;49.020;12.066;2022-12-18T11:32:48;49.07;;;21.23;;
8964;SDS011;4517;49.020;12.066;2022-12-18T11:38:18;46.37;;;20.60;;
8964;SDS011;4517;49.020;12.066;2022-12-18T11:41:04;45.20;;;20.47;;
8964;SDS011;4517;49.020;12.066;2022-12-18T11:43:32;49.53;;;20.50;;
8964;SDS011;4517;49.020;12.066;2022-12-18T11:46:17;43.80;;;21.70;;
8964;SDS011;4517;49.020;12.066;2022-12-18T11:49:07;46.47;;;21.27;;
8964;SDS011;4517;49.020;12.066;2022-12-18T11:51:41;52.83;;;21.33;;
8964;SDS011;4517;49.020;12.066;2022-12-18T11:54:13;45.17;;;22.37;;
8964;SDS011;4517;49.020;12.066;2022-12-18T11:56:46;44.00;;;20.30;;
8964;SDS011;4517;49.020;12.066;2022-12-18T11:59:20;42.93;;;21.07;;
8964;SDS011;4517;49.020;12.066;2022-12-18T12:02:01;41.33;;;18.80;;
8964;SDS011;4517;49.020;12.066;2022-12-18T12:15:27;44.20;;;20.10;;
8964;SDS011;4517;49.020;12.066;2022-12-18T12:21:11;43.30;;;20.07;;
8964;SDS011;4517;49.020;12.066;2022-12-18T12:24:18;42.87;;;19.73;;
8964;SDS011;4517;49.020;12.066;2022-12-18T12:32:41;37.73;;;20.10;;
8964;SDS011;4517;49.020;12.066;2022-12-18T12:40:59;39.80;;;18.37;;
8964;SDS011;4517;49.020;12.066;2022-12-18T12:43:31;40.60;;;20.10;;
8964;SDS011;4517;49.020;12.066;2022-12-18T12:46:03;43.47;;;20.57;;
8964;SDS011;4517;49.020;12.066;2022-12-18T12:48:46;41.50;;;18.53;;
8964;SDS011;4517;49.020;12.066;2022-12-18T12:51:40;35.40;;;18.20;;
8964;SDS011;4517;49.020;12.066;2022-12-18T12:54:17;41.63;;;18.57;;
8964;SDS011;4517;49.020;12.066;2022-12-18T12:56:51;42.47;;;19.60;;
8964;SDS011;4517;49.020;12.066;2022-12-18T12:59:31;44.47;;;20.77;;
8964;SDS011;4517;49.020;12.066;2022-12-18T13:02:08;39.17;;;17.93;;
8964;SDS011;4517;49.020;12.066;2022-12-18T13:04:46;38.83;;;19.20;;
8964;SDS011;4517;49.020;12.066;2022-12-18T13:07:26;37.60;;;19.50;;
8964;SDS011;4517;49.020;12.066;2022-12-18T13:15:46;47.33;;;19.37;;
8964;SDS011;4517;49.020;12.066;2022-12-18T13:18:18;39.07;;;18.90;;
8964;SDS011;4517;49.020;12.066;2022-12-18T13:25:50;44.37;;;19.10;;
8964;SDS011;4517;49.020;12.066;2022-12-18T13:28:20;39.47;;;19.30;;
8964;SDS011;4517;49.020;12.066;2022-12-18T13:30:47;36.17;;;19.13;;
8964;SDS011;4517;49.020;12.066;2022-12-18T13:41:04;36.40;;;19.37;;
8964;SDS011;4517;49.020;12.066;2022-12-18T13:43:42;39.87;;;19.10;;
8964;SDS011;4517;49.020;12.066;2022-12-18T13:49:03;45.67;;;20.40;;
8964;SDS011;4517;49.020;12.066;2022-12-18T13:51:42;50.20;;;24.20;;
8964;SDS011;4517;49.020;12.066;2022-12-18T13:56:55;47.00;;;21.30;;
8964;SDS011;4517;49.020;12.066;2022-12-18T13:59:22;47.03;;;20.80;;
8964;SDS011;4517;49.020;12.066;2022-12-18T14:01:53;42.07;;;19.73;;
8964;SDS011;4517;49.020;12.066;2022-12-18T14:06:53;41.03;;;20.60;;
8964;SDS011;4517;49.020;12.066;2022-12-18T14:09:30;53.50;;;23.40;;
8964;SDS011;4517;49.020;12.066;2022-12-18T14:11:59;45.23;;;21.30;;
8964;SDS011;4517;49.020;12.066;2022-12-18T14:14:45;44.80;;;20.53;;
8964;SDS011;4517;49.020;12.066;2022-12-18T14:17:13;48.07;;;23.33;;
8964;SDS011;4517;49.020;12.066;2022-12-18T14:19:42;57.77;;;21.97;;
8964;SDS011;4517;49.020;12.066;2022-12-18T14:22:14;55.90;;;23.83;;
8964;SDS011;4517;49.020;12.066;2022-12-18T14:24:41;49.17;;;20.40;;
8964;SDS011;4517;49.020;12.066;2022-12-18T14:27:21;51.93;;;21.63;;
8964;SDS011;4517;49.020;12.066;2022-12-18T14:29:50;44.10;;;22.30;;
8964;SDS011;4517;49.020;12.066;2022-12-18T14:32:17;47.43;;;19.50;;
8964;SDS011;4517;49.020;12.066;2022-12-18T14:34:53;58.53;;;22.60;;
8964;SDS011;4517;49.020;12.066;2022-12-18T14:37:22;47.13;;;21.77;;
8964;SDS011;4517;49.020;12.066;2022-12-18T14:39:56;54.83;;;23.10;;
8964;SDS011;4517;49.020;12.066;2022-12-18T14:42:27;48.90;;;21.77;;
8964;SDS011;4517;49.020;12.066;2022-12-18T14:47:58;66.13;;;22.87;;
8964;SDS011;4517;49.020;12.066;2022-12-18T14:50:25;50.03;;;20.77;;
8964;SDS011;4517;49.020;12.066;2022-12-18T14:52:51;43.80;;;21.50;;
8964;SDS011;4517;49.020;12.066;2022-12-18T14:55:17;51.10;;;22.87;;
8964;SDS011;4517;49.020;12.066;2022-12-18T14:57:44;61.63;;;22.27;;
8964;SDS011;4517;49.020;12.066;2022-12-18T15:00:15;46.90;;;21.97;;
8964;SDS011;4517;49.020;12.066;2022-12-18T15:02:44;46.67;;;20.20;;
8964;SDS011;4517;49.020;12.066;2022-12-18T15:07:46;38.70;;;18.73;;
8964;SDS011;4517;49.020;12.066;2022-12-18T15:10:16;45.67;;;21.07;;
8964;SDS011;4517;49.020;12.066;2022-12-18T15:12:49;46.23;;;21.40;;
8964;SDS011;4517;49.020;12.066;2022-12-18T15:18:04;45.30;;;20.37;;
8964;SDS011;4517;49.020;12.066;2022-12-18T15:20:55;51.03;;;22.00;;
8964;SDS011;4517;49.020;12.066;2022-12-18T15:23:28;49.47;;;20.70;;
8964;SDS011;4517;49.020;12.066;2022-12-18T15:26:03;38.90;;;19.43;;
8964;SDS011;4517;49.020;12.066;2022-12-18T15:28:34;44.33;;;20.90;;
8964;SDS011;4517;49.020;12.066;2022-12-18T15:31:04;41.80;;;18.90;;
8964;SDS011;4517;49.020;12.066;2022-12-18T15:33:34;49.50;;;20.37;;
8964;SDS011;4517;49.020;12.066;2022-12-18T15:36:03;41.57;;;20.13;;
8964;SDS011;4517;49.020;12.066;2022-12-18T15:38:30;47.03;;;21.50;;
8964;SDS011;4517;49.020;12.066;2022-12-18T15:40:56;55.17;;;22.20;;
8964;SDS011;4517;49.020;12.066;2022-12-18T15:43:22;56.87;;;24.97;;
8964;SDS011;4517;49.020;12.066;2022-12-18T15:45:58;54.50;;;22.10;;
8964;SDS011;4517;49.020;12.066;2022-12-18T15:48:28;57.00;;;21.33;;
8964;SDS011;4517;49.020;12.066;2022-12-18T15:50:54;47.50;;;22.17;;
8964;SDS011;4517;49.020;12.066;2022-12-18T15:53:23;44.30;;;20.57;;
8964;SDS011;4517;49.020;12.066;2022-12-18T15:55:52;58.70;;;22.40;;
8964;SDS011;4517;49.020;12.066;2022-12-18T15:58:53;57.57;;;22.57;;
8964;SDS011;4517;49.020;12.066;2022-12-18T16:01:19;46.83;;;20.90;;
8964;SDS011;4517;49.020;12.066;2022-12-18T16:03:47;46.23;;;23.20;;
8964;SDS011;4517;49.020;12.066;2022-12-18T16:06:13;49.23;;;23.40;;
8964;SDS011;4517;49.020;12.066;2022-12-18T16:08:38;58.73;;;23.13;;
8964;SDS011;4517;49.020;12.066;2022-12-18T16:11:04;55.20;;;24.73;;
8964;SDS011;4517;49.020;12.066;2022-12-18T16:13:30;50.37;;;20.97;;
8964;SDS011;4517;49.020;12.066;2022-12-18T16:15:56;52.17;;;21.37;;
8964;SDS011;4517;49.020;12.066;2022-12-18T16:18:23;51.70;;;21.30;;
8964;SDS011;4517;49.020;12.066;2022-12-18T16:20:48;55.07;;;21.57;;
8964;SDS011;4517;49.020;12.066;2022-12-18T16:23:14;54.83;;;22.97;;